Time;durP1;ratioP1;P1;durP2;ratioP2;P2;SDS_P1;SDS_P2;PMS_P1;PMS_P2;Temp;Humidity;BMP_temperature;BMP_pressure;BME280_temperature;BME280_humidity;BME280_pressure;Samples;Min_cycle;Max_cycle;Signal;HPM_P1;HPM_P2
2024/03/27 00:00:07;;;;;;;8.43;4.82;;;7.40;55.40;;;;;;5037173;28;20199;-60
2024/03/27 00:02:36;;;;;;;15.23;5.22;;;7.40;55.70;;;;;;5034961;28;20021;-61
2024/03/27 00:05:02;;;;;;;8.43;4.22;;;7.40;55.70;;;;;;5034595;28;20033;-60
2024/03/27 00:07:28;;;;;;;11.23;4.70;;;7.40;55.80;;;;;;5036951;28;20095;-61
2024/03/27 00:09:53;;;;;;;11.82;5.22;;;7.30;55.90;;;;;;5036455;28;20099;-62
2024/03/27 00:12:19;;;;;;;9.80;5.57;;;7.30;55.90;;;;;;5036230;28;20029;-61
2024/03/27 00:14:44;;;;;;;10.93;5.05;;;7.30;55.80;;;;;;5037006;28;20665;-61
2024/03/27 00:17:10;;;;;;;9.85;4.38;;;7.30;55.90;;;;;;5037074;28;20032;-61
2024/03/27 00:19:35;;;;;;;7.82;5.07;;;7.30;56.00;;;;;;5042326;28;20032;-61
2024/03/27 00:22:01;;;;;;;11.18;4.93;;;7.20;56.10;;;;;;5040938;28;20028;-61
2024/03/27 00:24:29;;;;;;;8.05;4.82;;;7.20;56.20;;;;;;5032516;28;20496;-61
2024/03/27 00:26:54;;;;;;;9.35;4.55;;;7.20;56.20;;;;;;5036474;28;20021;-61
2024/03/27 00:29:20;;;;;;;11.32;5.45;;;7.20;56.10;;;;;;5038920;28;20037;-61
2024/03/27 00:31:45;;;;;;;11.27;4.85;;;7.20;56.10;;;;;;5040420;28;20281;-62
2024/03/27 00:34:11;;;;;;;10.98;5.40;;;7.20;56.30;;;;;;5036703;28;20052;-61
2024/03/27 00:36:36;;;;;;;14.48;5.40;;;7.10;56.10;;;;;;5038452;28;20060;-61
2024/03/27 00:39:02;;;;;;;10.98;4.97;;;7.10;56.50;;;;;;5034341;28;20397;-61
2024/03/27 00:41:28;;;;;;;10.25;4.68;;;7.10;56.30;;;;;;5040560;28;20239;-62
2024/03/27 00:43:54;;;;;;;10.13;4.88;;;7.10;56.20;;;;;;5039957;28;20544;-61
2024/03/27 00:46:20;;;;;;;10.75;4.80;;;7.10;56.50;;;;;;5035377;28;20533;-61
2024/03/27 00:48:45;;;;;;;11.40;5.00;;;7.00;56.80;;;;;;5033263;28;20080;-61
2024/03/27 00:51:11;;;;;;;10.90;5.18;;;7.00;56.40;;;;;;5042366;28;20048;-61
2024/03/27 00:53:36;;;;;;;12.00;5.30;;;6.90;56.50;;;;;;5036575;28;20025;-45
2024/03/27 00:56:03;;;;;;;8.93;4.93;;;6.90;56.90;;;;;;5039833;28;20036;-60
2024/03/27 00:58:29;;;;;;;8.10;4.90;;;6.90;57.00;;;;;;5040274;28;20444;-61
2024/03/27 01:00:56;;;;;;;11.20;5.85;;;6.80;57.10;;;;;;5035976;28;20033;-61
2024/03/27 01:03:25;;;;;;;10.35;5.18;;;6.80;57.10;;;;;;5040364;28;20056;-60
2024/03/27 01:05:51;;;;;;;10.93;5.57;;;6.80;57.30;;;;;;5036137;28;20666;-60
2024/03/27 01:08:17;;;;;;;9.52;5.13;;;6.80;57.20;;;;;;5040242;28;20037;-60
2024/03/27 01:10:44;;;;;;;8.65;4.57;;;6.80;57.20;;;;;;5034053;28;20648;-61
2024/03/27 01:13:09;;;;;;;18.80;5.47;;;6.80;57.30;;;;;;5032712;28;20382;-61
2024/03/27 01:15:36;;;;;;;10.90;6.05;;;6.70;57.50;;;;;;5035043;28;20036;-61
2024/03/27 01:18:03;;;;;;;9.82;5.35;;;6.70;57.50;;;;;;5040308;28;20099;-62
2024/03/27 01:20:29;;;;;;;9.93;4.95;;;6.70;57.60;;;;;;5033820;28;20039;-61
2024/03/27 01:22:58;;;;;;;11.32;4.45;;;6.70;57.80;;;;;;5035725;28;20025;-60
2024/03/27 01:25:23;;;;;;;12.65;4.72;;;6.70;57.70;;;;;;5035544;28;20029;-60
2024/03/27 01:27:49;;;;;;;9.82;5.00;;;6.70;57.90;;;;;;5035956;28;20044;-60
2024/03/27 01:30:15;;;;;;;10.95;4.80;;;6.70;58.10;;;;;;5038283;28;20025;-61
2024/03/27 01:32:40;;;;;;;9.48;5.40;;;6.60;58.20;;;;;;5035410;28;20386;-61
2024/03/27 01:35:06;;;;;;;11.75;4.68;;;6.60;58.30;;;;;;5032592;28;20037;-61
2024/03/27 01:37:31;;;;;;;11.85;5.15;;;6.50;58.40;;;;;;5030914;28;20547;-60
2024/03/27 01:39:57;;;;;;;12.25;4.88;;;6.50;58.50;;;;;;5037003;28;20108;-61
2024/03/27 01:42:22;;;;;;;8.27;4.47;;;6.50;58.50;;;;;;5041086;28;20056;-61
2024/03/27 01:44:48;;;;;;;15.43;5.38;;;6.50;58.90;;;;;;5034649;28;20048;-60
2024/03/27 01:47:14;;;;;;;9.95;4.53;;;6.40;58.80;;;;;;5039620;28;20033;-61
2024/03/27 01:49:40;;;;;;;8.88;4.97;;;6.40;58.90;;;;;;5039224;28;20716;-60
2024/03/27 01:52:06;;;;;;;13.60;5.50;;;6.40;59.20;;;;;;5039298;28;20033;-60
2024/03/27 01:54:32;;;;;;;10.30;5.07;;;6.40;59.30;;;;;;5035168;28;20040;-60
2024/03/27 01:56:59;;;;;;;8.57;4.93;;;6.30;59.30;;;;;;5036583;28;20108;-61
2024/03/27 01:59:25;;;;;;;10.30;4.75;;;6.30;59.70;;;;;;5035245;28;20044;-61
2024/03/27 02:01:52;;;;;;;9.90;4.50;;;6.30;60.40;;;;;;5038900;28;20025;-60
2024/03/27 02:04:17;;;;;;;14.07;5.05;;;6.30;59.90;;;;;;5030881;28;20028;-61
2024/03/27 02:06:43;;;;;;;9.77;4.85;;;6.30;60.10;;;;;;5038857;28;20029;-61
2024/03/27 02:09:09;;;;;;;10.90;5.32;;;6.30;60.00;;;;;;5034257;28;20049;-60
2024/03/27 02:11:34;;;;;;;10.15;4.82;;;6.30;59.90;;;;;;5030776;28;20037;-60
2024/03/27 02:14:00;;;;;;;10.15;4.53;;;6.30;60.00;;;;;;5036172;28;20029;-60
2024/03/27 02:16:25;;;;;;;11.35;5.57;;;6.30;60.00;;;;;;5037558;28;20447;-61
2024/03/27 02:18:51;;;;;;;9.10;4.60;;;6.20;60.10;;;;;;5038591;28;20028;-61
2024/03/27 02:21:17;;;;;;;11.65;4.90;;;6.20;60.30;;;;;;5030017;28;20048;-60
2024/03/27 02:24:10;;;;;;;14.07;4.97;;;6.20;60.60;;;;;;5030181;28;20021;-61
2024/03/27 02:26:37;;;;;;;11.52;5.38;;;6.10;60.60;;;;;;5038788;28;20044;-60
2024/03/27 02:29:02;;;;;;;10.30;4.50;;;6.10;60.60;;;;;;5036582;28;20069;-60
2024/03/27 02:31:28;;;;;;;10.68;4.45;;;6.10;61.00;;;;;;5036574;28;20061;-61
2024/03/27 02:33:54;;;;;;;7.15;3.65;;;6.10;61.00;;;;;;5034832;28;20037;-60
2024/03/27 02:36:19;;;;;;;10.20;4.25;;;6.10;61.00;;;;;;5037560;28;20036;-60
2024/03/27 02:38:45;;;;;;;9.15;4.88;;;6.10;60.90;;;;;;5035712;28;20523;-60
2024/03/27 02:41:10;;;;;;;9.68;4.97;;;6.10;61.10;;;;;;5034320;28;20092;-60
2024/03/27 02:43:36;;;;;;;8.55;4.80;;;6.00;61.20;;;;;;5034236;28;20029;-60
2024/03/27 02:46:02;;;;;;;9.80;4.72;;;6.00;61.20;;;;;;5031369;28;20037;-61
2024/03/27 02:48:27;;;;;;;12.45;4.60;;;6.00;61.20;;;;;;5040458;28;20063;-61
2024/03/27 02:50:53;;;;;;;8.35;4.70;;;6.00;61.40;;;;;;5029792;28;20052;-60
2024/03/27 02:53:19;;;;;;;11.82;4.50;;;5.90;61.60;;;;;;5034260;28;20075;-61
2024/03/27 02:55:44;;;;;;;7.78;4.63;;;5.90;61.80;;;;;;5032725;28;20092;-60
2024/03/27 02:58:10;;;;;;;11.25;4.80;;;5.90;62.00;;;;;;5035878;28;20036;-60
2024/03/27 03:00:35;;;;;;;9.75;4.65;;;5.90;62.10;;;;;;5039463;28;20029;-60
2024/03/27 03:03:01;;;;;;;8.98;4.03;;;5.90;61.90;;;;;;5037628;28;20217;-61
2024/03/27 03:05:27;;;;;;;7.60;4.20;;;5.80;62.20;;;;;;5029847;28;20127;-61
2024/03/27 03:07:52;;;;;;;10.32;4.85;;;5.80;62.60;;;;;;5037391;28;20494;-60
2024/03/27 03:10:18;;;;;;;8.55;3.92;;;5.90;62.80;;;;;;5032897;28;20041;-60
2024/03/27 03:12:43;;;;;;;7.47;4.82;;;5.90;62.50;;;;;;5033660;28;20265;-60
2024/03/27 03:15:09;;;;;;;8.48;4.28;;;5.90;62.50;;;;;;5035989;28;20071;-61
2024/03/27 03:17:35;;;;;;;11.10;4.70;;;5.90;62.90;;;;;;5037352;28;20533;-60
2024/03/27 03:20:06;;;;;;;11.95;4.30;;;5.90;62.80;;;;;;5031775;28;20116;-61
2024/03/27 03:22:32;;;;;;;10.13;4.70;;;5.90;62.70;;;;;;5030786;28;20437;-60
2024/03/27 03:24:58;;;;;;;11.20;4.78;;;5.90;62.80;;;;;;5032552;28;20094;-60
2024/03/27 03:27:24;;;;;;;12.25;5.40;;;5.90;62.80;;;;;;5028984;28;20029;-60
2024/03/27 03:29:49;;;;;;;9.18;5.10;;;5.90;62.80;;;;;;5037442;28;20455;-60
2024/03/27 03:32:15;;;;;;;12.27;4.97;;;5.90;62.90;;;;;;5030830;28;20568;-61
2024/03/27 03:34:40;;;;;;;10.02;4.70;;;6.00;63.10;;;;;;5036919;28;20025;-61
2024/03/27 03:37:06;;;;;;;9.40;5.60;;;6.00;63.10;;;;;;5033077;28;20517;-61
2024/03/27 03:39:31;;;;;;;10.45;4.85;;;6.00;63.10;;;;;;5041919;28;20396;-60
2024/03/27 03:41:57;;;;;;;10.60;4.88;;;6.00;63.00;;;;;;5037013;28;20074;-60
2024/03/27 03:44:22;;;;;;;9.70;5.53;;;6.00;63.00;;;;;;5036889;28;20029;-60
2024/03/27 03:46:48;;;;;;;10.75;5.18;;;6.00;63.10;;;;;;5039130;28;20349;-60
2024/03/27 03:49:13;;;;;;;8.27;4.60;;;6.00;63.20;;;;;;5037339;28;20057;-60
2024/03/27 03:51:39;;;;;;;13.75;5.28;;;5.90;63.20;;;;;;5037419;28;20040;-60
2024/03/27 03:54:05;;;;;;;9.93;4.38;;;5.90;63.50;;;;;;5036740;28;20083;-60
2024/03/27 03:56:31;;;;;;;11.82;5.38;;;5.90;63.50;;;;;;5032875;28;20029;-60
2024/03/27 03:58:56;;;;;;;12.90;4.80;;;5.90;63.50;;;;;;5037082;28;20116;-60
2024/03/27 04:01:22;;;;;;;8.80;4.43;;;5.90;63.50;;;;;;5036920;28;20416;-58
2024/03/27 04:03:47;;;;;;;9.05;4.95;;;6.00;63.60;;;;;;5039116;28;20371;-61
2024/03/27 04:06:13;;;;;;;9.90;4.35;;;6.00;63.60;;;;;;5036801;28;20483;-61
2024/03/27 04:08:38;;;;;;;9.60;4.32;;;5.90;63.50;;;;;;5036649;28;20033;-60
2024/03/27 04:11:04;;;;;;;8.10;4.00;;;5.90;63.70;;;;;;5036629;28;20108;-61
2024/03/27 04:13:29;;;;;;;8.55;4.00;;;6.00;63.60;;;;;;5037088;28;20025;-60
2024/03/27 04:15:55;;;;;;;9.48;4.60;;;5.90;63.80;;;;;;5034194;28;20044;-60
2024/03/27 04:18:20;;;;;;;11.15;4.70;;;6.00;63.70;;;;;;5036480;28;20684;-61
2024/03/27 04:20:46;;;;;;;8.90;4.88;;;6.00;63.70;;;;;;5036296;28;20592;-60
2024/03/27 04:23:11;;;;;;;12.30;4.68;;;6.00;63.80;;;;;;5036208;28;20178;-61
2024/03/27 04:25:37;;;;;;;8.30;4.45;;;5.90;63.80;;;;;;5036483;28;20103;-60
2024/03/27 04:28:04;;;;;;;10.15;4.72;;;5.90;63.90;;;;;;5034573;28;20402;-60
2024/03/27 04:30:29;;;;;;;9.20;4.28;;;5.90;63.90;;;;;;5038410;28;20071;-61
2024/03/27 04:32:55;;;;;;;10.00;4.90;;;5.90;63.90;;;;;;5028177;28;20037;-61
2024/03/27 04:35:21;;;;;;;10.05;4.25;;;6.00;64.00;;;;;;5029290;28;20033;-61
2024/03/27 04:37:46;;;;;;;11.25;4.97;;;6.00;63.90;;;;;;5031697;28;20033;-61
2024/03/27 04:40:12;;;;;;;12.27;4.53;;;6.00;63.70;;;;;;5029368;28;20029;-61
2024/03/27 04:42:38;;;;;;;8.35;4.03;;;6.00;63.70;;;;;;5037495;28;20025;-60
2024/03/27 04:45:05;;;;;;;10.30;4.55;;;6.00;63.80;;;;;;5036846;28;20058;-60
2024/03/27 04:47:34;;;;;;;8.85;4.05;;;5.90;63.90;;;;;;5036249;28;20036;-61
2024/03/27 04:50:00;;;;;;;9.50;4.55;;;6.00;64.10;;;;;;5033146;28;20083;-60
2024/03/27 04:52:25;;;;;;;8.38;3.95;;;6.00;64.10;;;;;;5039211;28;20029;-61
2024/03/27 04:54:52;;;;;;;9.73;4.53;;;6.00;64.10;;;;;;5035004;28;20607;-60
2024/03/27 04:57:17;;;;;;;11.40;4.18;;;6.00;64.00;;;;;;5038450;28;20025;-61
2024/03/27 04:59:42;;;;;;;7.68;3.85;;;6.10;64.10;;;;;;5042104;28;20028;-60
2024/03/27 05:02:08;;;;;;;12.32;4.97;;;6.10;64.10;;;;;;5033755;28;20828;-59
2024/03/27 05:04:34;;;;;;;10.40;4.28;;;6.10;64.10;;;;;;5044285;28;20032;-61
2024/03/27 05:06:59;;;;;;;8.50;4.30;;;6.10;64.10;;;;;;5042615;28;20098;-61
2024/03/27 05:09:25;;;;;;;9.57;4.20;;;6.10;64.00;;;;;;5042676;28;20037;-60
2024/03/27 05:11:51;;;;;;;9.90;4.50;;;6.20;64.00;;;;;;5037098;28;20048;-60
2024/03/27 05:14:17;;;;;;;9.57;4.25;;;6.20;63.90;;;;;;5042535;28;20029;-61
2024/03/27 05:16:45;;;;;;;11.95;4.38;;;6.30;63.70;;;;;;5042378;28;20045;-61
2024/03/27 05:19:12;;;;;;;10.60;4.35;;;6.30;63.50;;;;;;5044054;28;20029;-61
2024/03/27 05:21:38;;;;;;;7.43;3.90;;;6.40;63.40;;;;;;5036532;28;20010;-60
2024/03/27 05:24:04;;;;;;;9.30;4.63;;;6.40;63.20;;;;;;5041635;28;20086;-60
2024/03/27 05:26:29;;;;;;;6.45;3.60;;;6.50;63.00;;;;;;5034137;28;20670;-60
2024/03/27 05:28:55;;;;;;;7.32;3.72;;;6.60;62.90;;;;;;5036080;28;20039;-61
2024/03/27 05:31:21;;;;;;;6.75;4.18;;;6.60;62.80;;;;;;5035620;28;20037;-61
2024/03/27 05:33:47;;;;;;;7.38;3.80;;;6.70;62.70;;;;;;5042192;28;20033;-62
2024/03/27 05:36:12;;;;;;;12.13;4.07;;;6.80;62.30;;;;;;5037764;28;20036;-60
2024/03/27 05:38:38;;;;;;;11.68;4.57;;;6.90;62.10;;;;;;5039178;28;20759;-61
2024/03/27 05:41:04;;;;;;;7.10;3.28;;;7.00;62.00;;;;;;5038943;28;20826;-61
2024/03/27 05:43:29;;;;;;;9.90;3.97;;;7.10;61.80;;;;;;5040515;28;20060;-61
2024/03/27 05:45:55;;;;;;;8.23;4.93;;;7.20;61.20;;;;;;5041667;28;20045;-60
2024/03/27 05:48:21;;;;;;;10.55;4.75;;;7.40;61.10;;;;;;5037660;28;20021;-60
2024/03/27 05:50:46;;;;;;;7.45;3.65;;;7.50;60.20;;;;;;5035520;28;20488;-61
2024/03/27 05:53:12;;;;;;;5.25;3.38;;;7.60;59.90;;;;;;5043453;28;20064;-61
2024/03/27 05:55:38;;;;;;;10.10;4.30;;;7.80;59.30;;;;;;5037552;28;20082;-61
2024/03/27 05:58:04;;;;;;;7.50;4.15;;;8.20;58.10;;;;;;5033163;28;20099;-61
2024/03/27 06:00:29;;;;;;;7.35;3.80;;;8.60;57.60;;;;;;5035683;28;20029;-61
2024/03/27 06:02:54;;;;;;;9.23;3.60;;;8.70;57.10;;;;;;5034903;28;20554;-61
2024/03/27 06:05:20;;;;;;;9.68;3.83;;;8.70;57.00;;;;;;5033167;28;20044;-60
2024/03/27 06:07:46;;;;;;;8.95;3.67;;;8.60;56.50;;;;;;5037795;28;20501;-61
2024/03/27 06:10:12;;;;;;;9.70;4.28;;;8.50;56.20;;;;;;5032017;28;20045;-60
2024/03/27 06:12:38;;;;;;;6.22;3.63;;;8.40;56.40;;;;;;5038420;28;20433;-62
2024/03/27 06:15:04;;;;;;;6.15;3.25;;;8.40;56.20;;;;;;5038572;28;20553;-60
2024/03/27 06:17:29;;;;;;;8.23;3.95;;;8.40;56.20;;;;;;5049886;28;20110;-60
2024/03/27 06:19:56;;;;;;;5.93;3.58;;;8.50;55.80;;;;;;5036991;28;20603;-60
2024/03/27 06:22:21;;;;;;;5.97;3.42;;;8.50;56.00;;;;;;5038958;28;20021;-61
2024/03/27 06:24:46;;;;;;;15.48;4.85;;;8.60;56.00;;;;;;5032693;28;20462;-61
2024/03/27 06:27:12;;;;;;;6.88;3.40;;;8.70;55.80;;;;;;5036773;28;20040;-61
2024/03/27 06:29:37;;;;;;;7.32;4.13;;;8.70;56.10;;;;;;5036973;28;20555;-60
2024/03/27 06:32:03;;;;;;;8.40;4.00;;;8.80;56.00;;;;;;5032564;28;20106;-60
2024/03/27 06:34:29;;;;;;;11.82;4.30;;;8.90;55.70;;;;;;5045908;28;20025;-60
2024/03/27 06:36:55;;;;;;;6.22;3.47;;;9.00;56.20;;;;;;5038835;28;20024;-61
2024/03/27 06:39:21;;;;;;;9.07;3.53;;;9.00;55.30;;;;;;5031418;28;20025;-62
2024/03/27 06:41:47;;;;;;;6.68;3.80;;;9.10;54.90;;;;;;5034320;28;20500;-62
2024/03/27 06:44:12;;;;;;;6.60;3.78;;;9.10;55.00;;;;;;5035784;28;20047;-61
2024/03/27 06:46:38;;;;;;;7.90;3.40;;;9.10;54.90;;;;;;5040478;28;20032;-59
2024/03/27 06:49:17;;;;;;;6.57;2.92;;;9.20;54.40;;;;;;5039585;28;20037;-60
2024/03/27 06:51:45;;;;;;;7.60;3.35;;;9.20;54.10;;;;;;5025932;28;20025;-59
2024/03/27 06:54:11;;;;;;;5.40;2.95;;;9.30;54.20;;;;;;5031599;28;20029;-59
2024/03/27 06:56:37;;;;;;;6.90;3.22;;;9.50;53.00;;;;;;5034191;28;20151;-59
2024/03/27 06:59:02;;;;;;;6.68;3.42;;;9.70;53.40;;;;;;5034643;28;20694;-59
2024/03/27 07:01:28;;;;;;;7.65;3.70;;;9.90;52.90;;;;;;5036014;28;20053;-53
2024/03/27 07:03:55;;;;;;;8.15;3.72;;;10.20;52.00;;;;;;5031123;28;20649;-50
2024/03/27 07:06:20;;;;;;;8.43;3.60;;;10.30;51.10;;;;;;5033150;28;20064;-52
2024/03/27 07:08:46;;;;;;;5.80;3.10;;;10.40;51.00;;;;;;5029638;28;20076;-50
2024/03/27 07:11:11;;;;;;;7.95;3.20;;;10.60;49.90;;;;;;5033917;28;20029;-52
2024/03/27 07:13:37;;;;;;;7.20;3.60;;;10.70;50.20;;;;;;5038129;28;20080;-54
2024/03/27 07:16:03;;;;;;;10.50;3.20;;;10.90;50.10;;;;;;5038743;28;20082;-52
2024/03/27 07:18:29;;;;;;;7.93;3.95;;;11.10;48.90;;;;;;5035675;28;20025;-50
2024/03/27 07:20:58;;;;;;;5.70;3.50;;;11.20;48.20;;;;;;5032515;28;20710;-53
2024/03/27 07:23:27;;;;;;;7.50;3.80;;;11.40;47.50;;;;;;5027847;28;20116;-53
2024/03/27 07:25:53;;;;;;;7.03;3.90;;;11.60;46.70;;;;;;5029402;28;20045;-52
2024/03/27 07:28:19;;;;;;;7.00;3.35;;;11.70;47.30;;;;;;5033579;28;20021;-53
2024/03/27 07:30:48;;;;;;;8.77;3.28;;;11.80;47.10;;;;;;5037607;28;20048;-53
2024/03/27 07:33:13;;;;;;;6.65;2.90;;;12.00;46.50;;;;;;5037584;28;20031;-53
2024/03/27 07:35:39;;;;;;;6.68;3.17;;;12.30;46.80;;;;;;5029371;28;20037;-53
2024/03/27 07:38:05;;;;;;;6.32;3.30;;;12.50;46.50;;;;;;5037407;28;20025;-53
2024/03/27 07:40:30;;;;;;;10.32;3.13;;;12.80;46.70;;;;;;5031964;28;20037;-49
2024/03/27 07:42:56;;;;;;;8.00;3.72;;;12.90;45.00;;;;;;5033702;28;20098;-52
2024/03/27 07:45:22;;;;;;;6.57;3.25;;;13.10;43.50;;;;;;5034189;28;20484;-51
2024/03/27 07:47:49;;;;;;;5.60;3.30;;;13.40;42.60;;;;;;5037536;28;20481;-49
2024/03/27 07:50:15;;;;;;;4.95;3.22;;;13.60;42.10;;;;;;5037565;28;20029;-50
2024/03/27 07:52:40;;;;;;;6.40;3.28;;;14.10;41.80;;;;;;5037425;28;20036;-51
2024/03/27 07:55:07;;;;;;;6.25;3.78;;;14.30;40.00;;;;;;5031334;28;20497;-52
2024/03/27 07:57:33;;;;;;;7.72;2.97;;;14.70;39.30;;;;;;5035253;28;20438;-52
2024/03/27 07:59:59;;;;;;;5.53;2.90;;;15.00;39.30;;;;;;5033227;28;20028;-53
2024/03/27 08:02:24;;;;;;;6.00;2.83;;;15.30;38.30;;;;;;5037226;28;20173;-49
2024/03/27 08:04:50;;;;;;;5.82;2.83;;;15.70;36.50;;;;;;5037202;28;20119;-53
2024/03/27 08:07:15;;;;;;;6.13;3.17;;;16.00;35.40;;;;;;5026366;28;20137;-51
2024/03/27 08:09:46;;;;;;;4.88;2.90;;;16.40;34.60;;;;;;5031443;28;20736;-52
2024/03/27 08:12:12;;;;;;;8.02;3.13;;;16.70;33.40;;;;;;5034226;28;20039;-52
2024/03/27 08:14:37;;;;;;;7.30;3.67;;;16.90;31.90;;;;;;5027928;28;20716;-55
2024/03/27 08:17:03;;;;;;;6.60;3.22;;;17.10;29.00;;;;;;5030883;28;20048;-51
2024/03/27 08:19:28;;;;;;;4.50;2.72;;;17.30;30.70;;;;;;5031889;28;20073;-53
2024/03/27 08:21:54;;;;;;;7.57;3.13;;;17.50;30.80;;;;;;5032007;28;20371;-54
2024/03/27 08:24:19;;;;;;;5.75;2.85;;;17.50;28.30;;;;;;5031670;28;20037;-50
2024/03/27 08:26:45;;;;;;;5.70;2.60;;;17.70;28.80;;;;;;5035932;28;20035;-54
2024/03/27 08:29:10;;;;;;;4.05;2.40;;;17.90;28.80;;;;;;5034912;28;20036;-53
2024/03/27 08:31:35;;;;;;;7.32;2.70;;;17.70;26.20;;;;;;5033770;28;20523;-54
2024/03/27 08:34:01;;;;;;;7.57;2.65;;;17.80;26.60;;;;;;5041076;28;20029;-53
2024/03/27 08:36:26;;;;;;;8.27;2.53;;;18.00;26.20;;;;;;5037541;28;20025;-50
2024/03/27 08:38:52;;;;;;;6.82;2.97;;;18.20;26.00;;;;;;5034267;28;20637;-52
2024/03/27 08:41:17;;;;;;;6.93;2.50;;;18.40;26.30;;;;;;5029948;28;20028;-53
2024/03/27 08:43:43;;;;;;;4.03;2.40;;;18.70;24.20;;;;;;5044017;28;20532;-50
2024/03/27 08:46:08;;;;;;;5.32;2.45;;;19.00;26.00;;;;;;5036698;28;20025;-52
2024/03/27 08:48:34;;;;;;;5.15;2.70;;;19.20;24.40;;;;;;5038086;28;20424;-53
2024/03/27 08:50:59;;;;;;;2.88;2.08;;;19.50;24.60;;;;;;5041169;28;20124;-53
2024/03/27 08:53:25;;;;;;;2.60;2.17;;;19.70;23.90;;;;;;5038659;28;20029;-55
2024/03/27 08:55:50;;;;;;;3.50;2.40;;;19.90;24.10;;;;;;5037592;28;20040;-49
2024/03/27 08:58:16;;;;;;;5.50;2.72;;;19.80;23.50;;;;;;5037819;28;20040;-53
2024/03/27 09:00:44;;;;;;;8.20;2.35;;;19.70;22.50;;;;;;5034283;28;20017;-50
2024/03/27 09:03:09;;;;;;;3.22;2.60;;;19.60;19.90;;;;;;5052910;28;20029;-54
2024/03/27 09:05:36;;;;;;;3.13;2.45;;;19.30;19.00;;;;;;5040002;28;20036;-54
2024/03/27 09:08:01;;;;;;;5.60;2.47;;;19.10;19.30;;;;;;5037862;28;20040;-53
2024/03/27 09:10:26;;;;;;;5.95;2.22;;;19.10;19.70;;;;;;5037235;28;20041;-50
2024/03/27 09:12:52;;;;;;;4.65;2.22;;;19.00;19.90;;;;;;5036855;28;20124;-50
2024/03/27 09:15:17;;;;;;;2.80;2.10;;;19.10;20.10;;;;;;5046569;28;20036;-53
2024/03/27 09:17:43;;;;;;;4.93;2.67;;;18.90;19.10;;;;;;5043398;28;20037;-49
2024/03/27 09:20:09;;;;;;;6.10;2.13;;;18.60;19.20;;;;;;5034965;28;20025;-50
2024/03/27 09:22:35;;;;;;;3.03;2.22;;;18.50;19.30;;;;;;5038858;28;20119;-53
2024/03/27 09:25:01;;;;;;;3.55;2.17;;;18.60;19.50;;;;;;5038836;28;20081;-55
2024/03/27 09:27:27;;;;;;;3.28;2.25;;;18.60;19.90;;;;;;5037186;28;20104;-51
2024/03/27 09:29:53;;;;;;;3.22;2.42;;;18.90;19.10;;;;;;5041039;28;20455;-51
2024/03/27 09:32:19;;;;;;;5.68;2.47;;;18.90;19.00;;;;;;5036200;28;20025;-55
2024/03/27 09:34:46;;;;;;;8.07;2.60;;;18.90;19.30;;;;;;5041319;28;20033;-53
2024/03/27 09:37:12;;;;;;;4.90;2.60;;;19.30;18.60;;;;;;5050627;28;20740;-54
2024/03/27 09:39:38;;;;;;;5.95;2.58;;;19.30;18.10;;;;;;5037792;28;20036;-52
2024/03/27 09:42:04;;;;;;;3.83;2.58;;;19.40;17.90;;;;;;5036340;28;20044;-50
2024/03/27 09:44:30;;;;;;;4.07;2.40;;;19.70;18.60;;;;;;5032809;28;20102;-55
2024/03/27 09:47:00;;;;;;;6.47;2.55;;;19.70;17.40;;;;;;5030860;28;20029;-55
2024/03/27 09:49:28;;;;;;;3.88;2.65;;;19.60;17.20;;;;;;5039964;28;20017;-51
2024/03/27 09:51:57;;;;;;;4.80;2.38;;;19.70;16.80;;;;;;5037593;28;20068;-55
2024/03/27 09:54:26;;;;;;;5.13;2.38;;;19.70;17.20;;;;;;5039304;28;20044;-54
2024/03/27 09:56:56;;;;;;;3.92;2.40;;;19.90;17.30;;;;;;5025455;28;20725;-51
2024/03/27 09:59:22;;;;;;;4.05;2.30;;;19.90;16.80;;;;;;5034332;28;20055;-52
2024/03/27 10:02:04;;;;;;;5.30;2.45;;;20.00;16.90;;;;;;5039301;28;20108;-54
2024/03/27 10:04:29;;;;;;;8.20;2.38;;;19.90;16.90;;;;;;5039171;28;20025;-54
2024/03/27 10:06:55;;;;;;;4.50;2.22;;;19.70;17.20;;;;;;5037609;28;20450;-55
2024/03/27 10:09:21;;;;;;;3.58;2.20;;;19.80;17.30;;;;;;5029314;28;20147;-54
2024/03/27 10:11:46;;;;;;;3.42;2.03;;;19.50;17.40;;;;;;5031094;28;20531;-52
2024/03/27 10:14:12;;;;;;;5.35;2.15;;;19.20;17.80;;;;;;5032706;28;20021;-54
2024/03/27 10:16:37;;;;;;;3.42;2.50;;;19.00;17.90;;;;;;5034657;28;20017;-49
2024/03/27 10:19:04;;;;;;;5.78;2.40;;;18.80;17.90;;;;;;5033393;28;20711;-50
2024/03/27 10:21:29;;;;;;;4.78;2.35;;;18.60;17.70;;;;;;5037174;28;20033;-53
2024/03/27 10:23:55;;;;;;;4.07;2.83;;;18.50;18.10;;;;;;5030839;28;20046;-52
2024/03/27 10:26:20;;;;;;;7.00;2.67;;;18.30;18.10;;;;;;5035362;28;20056;-51
2024/03/27 10:28:46;;;;;;;3.88;2.17;;;18.20;18.50;;;;;;5032373;28;20032;-49
2024/03/27 10:31:11;;;;;;;3.75;2.05;;;18.10;19.00;;;;;;5028397;28;20021;-53
2024/03/27 10:33:37;;;;;;;2.58;1.98;;;18.00;18.20;;;;;;5038723;28;20032;-51
2024/03/27 10:36:05;;;;;;;4.78;2.55;;;17.90;18.20;;;;;;5026233;28;20037;-50
2024/03/27 10:38:32;;;;;;;6.18;2.40;;;17.80;18.60;;;;;;5035400;28;20077;-49
2024/03/27 10:40:58;;;;;;;6.05;2.25;;;17.60;18.60;;;;;;5031023;28;20040;-51
2024/03/27 10:43:30;;;;;;;5.22;2.40;;;17.40;18.70;;;;;;5037952;28;20025;-50
2024/03/27 10:45:58;;;;;;;5.35;2.67;;;17.30;19.20;;;;;;5038212;28;20047;-49
2024/03/27 10:48:24;;;;;;;4.05;1.77;;;17.00;19.20;;;;;;5038160;28;20100;-53
2024/03/27 10:50:50;;;;;;;4.70;2.10;;;16.90;19.60;;;;;;5036534;28;20108;-51
2024/03/27 10:53:17;;;;;;;3.97;2.20;;;16.80;19.80;;;;;;5047164;28;20028;-53
2024/03/27 10:55:42;;;;;;;3.17;2.10;;;16.80;20.30;;;;;;5039900;28;20028;-49
2024/03/27 10:58:09;;;;;;;2.75;2.00;;;17.00;20.40;;;;;;5038103;28;20029;-49
2024/03/27 11:00:36;;;;;;;5.68;2.13;;;17.00;20.00;;;;;;5035430;28;20013;-53
2024/03/27 11:03:03;;;;;;;5.22;2.00;;;17.00;20.10;;;;;;5039329;28;20028;-54
2024/03/27 11:05:30;;;;;;;5.45;1.95;;;17.10;20.20;;;;;;5054404;28;20557;-53
2024/03/27 11:07:58;;;;;;;5.78;1.90;;;17.10;20.00;;;;;;5030279;28;20037;-53
2024/03/27 11:10:25;;;;;;;4.05;1.90;;;17.20;20.30;;;;;;5031825;28;20045;-51
2024/03/27 11:12:52;;;;;;;4.25;2.10;;;17.30;20.20;;;;;;5037183;28;20052;-52
2024/03/27 11:15:18;;;;;;;7.25;2.13;;;17.30;20.30;;;;;;5035032;28;20041;-52
2024/03/27 11:17:53;;;;;;;6.03;2.63;;;17.20;20.30;;;;;;5036469;28;20086;-51
2024/03/27 11:20:22;;;;;;;4.97;2.40;;;17.20;20.90;;;;;;5031769;28;20033;-52
2024/03/27 11:22:47;;;;;;;5.43;2.50;;;17.10;20.70;;;;;;5038387;28;20119;-49
2024/03/27 11:25:14;;;;;;;4.10;2.38;;;17.20;20.70;;;;;;5033455;28;20033;-50
2024/03/27 11:27:40;;;;;;;5.93;2.22;;;17.30;20.60;;;;;;5032039;28;20047;-52
2024/03/27 11:30:06;;;;;;;4.55;2.05;;;17.30;20.50;;;;;;5034435;28;20490;-50
2024/03/27 11:32:39;;;;;;;4.38;2.28;;;17.30;21.00;;;;;;5037149;28;20038;-51
2024/03/27 11:35:05;;;;;;;6.10;2.42;;;17.40;20.90;;;;;;5038454;28;20079;-51
2024/03/27 11:37:31;;;;;;;3.88;2.35;;;17.50;21.20;;;;;;5037919;28;20166;-48
2024/03/27 11:39:56;;;;;;;7.88;3.00;;;17.60;21.00;;;;;;5030514;28;20123;-53
2024/03/27 11:42:22;;;;;;;7.15;2.03;;;17.70;20.90;;;;;;5034230;28;20462;-48
2024/03/27 11:44:48;;;;;;;4.55;2.20;;;17.70;20.90;;;;;;5038139;28;20564;-51
2024/03/27 11:47:17;;;;;;;4.35;2.05;;;17.80;20.70;;;;;;5035783;28;20041;-52
2024/03/27 11:49:43;;;;;;;3.55;1.80;;;17.80;20.90;;;;;;5036101;28;20031;-53
2024/03/27 11:52:10;;;;;;;14.25;2.80;;;17.80;20.90;;;;;;5034648;28;20041;-53
2024/03/27 11:54:35;;;;;;;4.63;2.10;;;17.80;21.00;;;;;;5032721;28;20100;-50
2024/03/27 11:57:01;;;;;;;4.32;2.42;;;17.80;20.80;;;;;;5037399;28;20508;-52
2024/03/27 11:59:27;;;;;;;3.95;1.90;;;17.80;21.00;;;;;;5035867;28;20448;-53
2024/03/27 12:01:52;;;;;;;2.60;2.10;;;17.80;21.00;;;;;;5030289;28;20065;-52
2024/03/27 12:04:19;;;;;;;5.47;2.25;;;17.90;21.30;;;;;;5035576;28;20061;-51
2024/03/27 12:06:44;;;;;;;3.50;1.92;;;17.80;20.90;;;;;;5035807;28;20036;-52
2024/03/27 12:09:16;;;;;;;3.22;2.17;;;17.90;21.20;;;;;;5042250;28;20041;-53
2024/03/27 12:11:42;;;;;;;5.80;2.50;;;17.90;21.20;;;;;;5037882;28;20074;-53
2024/03/27 12:14:15;;;;;;;5.13;2.03;;;17.90;21.20;;;;;;5039023;28;20025;-53
2024/03/27 12:16:41;;;;;;;3.80;1.85;;;17.90;21.40;;;;;;5043888;28;20027;-50
2024/03/27 12:19:07;;;;;;;4.82;1.85;;;18.00;21.10;;;;;;5037620;28;20484;-52
2024/03/27 12:21:32;;;;;;;4.70;1.55;;;18.00;21.30;;;;;;5036756;28;20032;-51
2024/03/27 12:23:58;;;;;;;5.95;1.92;;;18.10;21.50;;;;;;5030545;28;20096;-54
2024/03/27 12:26:23;;;;;;;3.83;2.05;;;18.20;21.50;;;;;;5035229;28;20029;-52
2024/03/27 12:28:53;;;;;;;5.80;2.45;;;18.20;21.40;;;;;;5039001;28;20041;-54
2024/03/27 12:31:28;;;;;;;4.65;2.22;;;18.20;21.00;;;;;;5029928;28;20122;-51
2024/03/27 12:33:54;;;;;;;5.97;2.10;;;18.30;21.60;;;;;;5029470;28;20087;-53
2024/03/27 12:36:19;;;;;;;2.67;1.85;;;18.40;21.50;;;;;;5036490;28;20282;-53
2024/03/27 12:38:45;;;;;;;3.20;2.08;;;18.50;21.20;;;;;;5032671;28;20009;-44
2024/03/27 12:41:12;;;;;;;2.47;2.10;;;18.60;21.20;;;;;;5035946;28;20029;-52
2024/03/27 12:43:38;;;;;;;5.75;2.17;;;18.50;21.30;;;;;;5035441;28;20029;-51